createdAt,value
2024-01-14T00:01:08.014Z,63.70
2024-01-14T00:05:11.230Z,64.80
2024-01-14T00:09:14.742Z,65.90
2024-01-14T00:13:20.048Z,66.80
2024-01-14T00:17:23.043Z,67.40
2024-01-14T00:21:25.972Z,67.70
2024-01-14T00:25:29.026Z,68.00
2024-01-14T00:29:32.361Z,68.20
2024-01-14T00:33:35.493Z,68.60
2024-01-14T00:37:38.455Z,68.50
2024-01-14T00:41:41.708Z,68.70
2024-01-14T00:45:44.611Z,68.50
2024-01-14T00:49:48.789Z,68.70
2024-01-14T00:53:52.030Z,68.70
2024-01-14T00:57:54.912Z,68.80
2024-01-14T01:01:57.891Z,69.10
2024-01-14T01:06:00.832Z,69.60
2024-01-14T01:10:04.414Z,69.50
2024-01-14T01:14:07.475Z,69.90
2024-01-14T01:18:10.986Z,70.00
2024-01-14T01:22:14.845Z,70.50
2024-01-14T01:26:17.810Z,70.60
2024-01-14T01:30:21.022Z,70.90
2024-01-14T01:34:24.419Z,71.50
2024-01-14T01:38:27.568Z,71.10
2024-01-14T01:42:30.901Z,71.20
2024-01-14T01:46:36.308Z,71.40
2024-01-14T01:50:39.666Z,71.60
2024-01-14T01:54:43.690Z,72.20
2024-01-14T01:58:49.821Z,73.00
2024-01-14T02:02:53.512Z,73.60
2024-01-14T02:06:57.471Z,73.40
2024-01-14T02:11:01.470Z,74.00
2024-01-14T02:15:04.983Z,74.50
2024-01-14T02:19:08.583Z,74.40
2024-01-14T02:23:16.837Z,74.70
2024-01-14T02:27:20.369Z,75.20
2024-01-14T02:31:23.847Z,75.20
2024-01-14T02:35:26.774Z,75.50
2024-01-14T02:39:29.932Z,75.60
2024-01-14T02:43:33.207Z,75.70
2024-01-14T02:47:36.298Z,76.10
2024-01-14T02:51:39.437Z,76.40
2024-01-14T02:55:42.701Z,76.40
2024-01-14T02:59:45.624Z,76.30
2024-01-14T03:03:48.718Z,76.10
2024-01-14T03:07:51.773Z,75.70
2024-01-14T03:11:55.252Z,75.00
2024-01-14T03:15:58.233Z,74.40
2024-01-14T03:20:01.208Z,74.40
2024-01-14T03:24:05.168Z,74.20
2024-01-14T03:28:08.044Z,73.80
2024-01-14T03:32:10.943Z,74.40
2024-01-14T03:36:17.090Z,74.40
2024-01-14T03:40:20.008Z,74.60
2024-01-14T03:44:22.803Z,74.60
2024-01-14T03:48:25.719Z,74.50
2024-01-14T03:52:28.694Z,74.40
2024-01-14T03:56:31.491Z,74.10
2024-01-14T04:00:34.406Z,73.50
2024-01-14T04:04:38.094Z,73.20
2024-01-14T04:08:41.343Z,73.00
2024-01-14T04:12:44.536Z,72.60
2024-01-14T04:16:47.463Z,72.60
2024-01-14T04:20:50.619Z,72.80
2024-01-14T04:24:53.600Z,72.90
2024-01-14T04:28:56.708Z,73.30
2024-01-14T04:32:59.944Z,73.60
2024-01-14T04:37:02.958Z,73.80
2024-01-14T04:41:05.898Z,73.50
2024-01-14T04:45:09.155Z,73.10
2024-01-14T04:49:12.460Z,73.00
2024-01-14T04:53:15.949Z,73.30
2024-01-14T04:57:18.884Z,73.30
2024-01-14T05:01:22.228Z,73.30
2024-01-14T05:05:25.102Z,73.40
2024-01-14T05:09:28.161Z,73.00
2024-01-14T05:13:31.290Z,72.90
2024-01-14T05:17:34.281Z,73.20
2024-01-14T05:21:37.768Z,73.00
2024-01-14T05:25:40.593Z,72.80
2024-01-14T05:29:47.097Z,72.70
2024-01-14T05:33:50.032Z,72.80
2024-01-14T05:37:52.978Z,73.00
2024-01-14T05:41:55.912Z,72.50
2024-01-14T05:45:58.847Z,72.40
2024-01-14T05:50:02.431Z,72.60
2024-01-14T05:54:05.423Z,72.70
2024-01-14T05:58:08.260Z,72.60
2024-01-14T06:02:11.063Z,72.40
2024-01-14T06:06:16.015Z,72.10
2024-01-14T06:10:19.050Z,72.00
2024-01-14T06:14:21.975Z,72.10
2024-01-14T06:18:25.369Z,72.30
2024-01-14T06:22:28.730Z,72.90
2024-01-14T06:26:31.590Z,72.90
2024-01-14T06:30:35.627Z,72.60
2024-01-14T06:34:38.893Z,72.50
2024-01-14T06:38:41.911Z,72.40
2024-01-14T06:42:45.180Z,72.70
2024-01-14T06:46:49.372Z,72.90
2024-01-14T06:50:52.132Z,73.10
2024-01-14T06:54:55.393Z,73.00
2024-01-14T06:58:58.371Z,73.40
2024-01-14T07:03:01.354Z,73.40
2024-01-14T07:07:04.347Z,73.90
2024-01-14T07:11:07.440Z,74.10
2024-01-14T07:15:10.654Z,73.60
2024-01-14T07:19:13.934Z,73.70
2024-01-14T07:23:42.030Z,73.80
2024-01-14T07:27:39.722Z,74.10
2024-01-14T07:31:42.722Z,74.80
2024-01-14T07:35:45.622Z,75.30
2024-01-14T07:39:48.507Z,75.20
2024-01-14T07:43:51.852Z,75.40
2024-01-14T07:47:54.884Z,75.70
2024-01-14T07:51:59.052Z,75.60
2024-01-14T07:56:15.719Z,75.60
2024-01-14T08:00:18.815Z,75.80
2024-01-14T08:04:21.610Z,75.80
2024-01-14T08:08:25.292Z,75.60
2024-01-14T08:12:28.273Z,75.40
2024-01-14T08:16:31.183Z,75.40
2024-01-14T08:20:34.006Z,75.40
2024-01-14T08:24:36.873Z,75.50
2024-01-14T08:28:40.115Z,75.30
2024-01-14T08:32:43.268Z,75.10
2024-01-14T08:36:46.117Z,75.20
2024-01-14T08:40:49.186Z,75.20
2024-01-14T08:44:54.064Z,75.30
2024-01-14T08:48:56.978Z,75.40
2024-01-14T08:52:59.991Z,75.30
2024-01-14T08:57:05.621Z,75.30
2024-01-14T09:01:12.159Z,75.20
2024-01-14T09:05:18.630Z,75.20
2024-01-14T09:09:23.871Z,75.40
2024-01-14T09:13:26.739Z,75.30
2024-01-14T09:17:29.777Z,75.20
2024-01-14T09:21:32.820Z,75.20
2024-01-14T09:25:35.823Z,75.10
2024-01-14T09:29:38.708Z,75.10
2024-01-14T09:33:41.677Z,75.20
2024-01-14T09:37:44.673Z,75.30
2024-01-14T09:42:16.639Z,75.50
2024-01-14T09:46:20.180Z,75.80
2024-01-14T09:50:23.556Z,76.00
2024-01-14T09:54:26.399Z,76.20
2024-01-14T09:58:29.346Z,76.10
2024-01-14T10:02:36.857Z,76.20
2024-01-14T10:06:45.957Z,76.30
2024-01-14T10:15:42.611Z,76.30
2024-01-14T10:19:59.219Z,76.10
2024-01-14T10:24:04.815Z,76.10
2024-01-14T10:28:11.214Z,76.10
2024-01-14T10:32:15.679Z,76.20
2024-01-14T10:36:23.092Z,76.30
2024-01-14T10:40:31.098Z,76.40
2024-01-14T10:44:35.786Z,76.10
2024-01-14T10:48:40.283Z,76.20
2024-01-14T10:52:51.530Z,76.10
2024-01-14T10:57:28.639Z,76.10
2024-01-14T11:01:34.993Z,76.30
2024-01-14T11:05:38.101Z,76.20
2024-01-14T11:09:43.355Z,76.10
2024-01-14T11:14:05.222Z,76.00
2024-01-14T11:18:24.301Z,75.90
2024-01-14T11:22:34.361Z,76.00
2024-01-14T11:26:41.304Z,76.00
2024-01-14T11:30:48.469Z,75.90
2024-01-14T11:34:52.513Z,75.80
2024-01-14T11:38:57.283Z,75.80
2024-01-14T11:43:09.057Z,75.70
2024-01-14T11:47:12.317Z,75.60
2024-01-14T11:51:16.794Z,75.70
2024-01-14T11:55:20.799Z,75.70
2024-01-14T12:03:29.670Z,75.60
2024-01-14T12:07:32.737Z,75.50
2024-01-14T12:11:37.004Z,75.40
2024-01-14T12:15:41.458Z,75.50
2024-01-14T12:20:00.656Z,75.40
2024-01-14T12:24:05.092Z,75.40
2024-01-14T12:28:08.190Z,75.30
2024-01-14T12:32:13.393Z,75.20
2024-01-14T12:36:16.687Z,75.20
2024-01-14T12:40:19.523Z,75.00
2024-01-14T12:44:23.512Z,74.70
2024-01-14T12:48:26.759Z,74.70
2024-01-14T12:52:30.666Z,74.70
2024-01-14T12:56:33.448Z,74.50
2024-01-14T13:00:37.675Z,74.40
2024-01-14T13:04:40.749Z,74.30
2024-01-14T13:08:43.690Z,74.20
2024-01-14T13:12:47.246Z,74.00
2024-01-14T13:16:54.176Z,73.80
2024-01-14T13:20:58.722Z,73.80
2024-01-14T13:25:01.726Z,73.80
2024-01-14T13:29:04.757Z,73.80
2024-01-14T13:33:07.892Z,73.80
2024-01-14T13:37:11.832Z,73.80
2024-01-14T13:41:15.698Z,73.70
2024-01-14T13:45:18.997Z,73.60
2024-01-14T13:49:21.965Z,73.60
2024-01-14T13:53:27.657Z,73.60
2024-01-14T13:57:31.676Z,73.50
2024-01-14T14:01:34.930Z,73.30
2024-01-14T14:05:37.877Z,73.20
2024-01-14T14:09:40.778Z,73.00
2024-01-14T14:13:44.019Z,73.00
2024-01-14T14:17:52.340Z,72.90
2024-01-14T14:22:00.521Z,72.90
2024-01-14T14:26:06.997Z,72.90
2024-01-14T14:30:16.097Z,73.00
2024-01-14T14:34:20.361Z,73.00
2024-01-14T14:38:24.984Z,73.10
2024-01-14T14:42:28.183Z,73.20
2024-01-14T14:46:33.397Z,73.20
2024-01-14T14:50:36.393Z,73.10
2024-01-14T14:54:39.531Z,73.20
2024-01-14T14:58:44.726Z,73.20
2024-01-14T15:02:49.958Z,73.30
2024-01-14T15:06:53.567Z,73.40
2024-01-14T15:10:59.530Z,73.30
2024-01-14T15:15:02.600Z,73.20
2024-01-14T15:19:08.718Z,73.10
2024-01-14T15:23:13.887Z,73.10
2024-01-14T15:27:17.045Z,73.30
2024-01-14T15:31:21.398Z,73.40
2024-01-14T15:35:25.646Z,73.50
2024-01-14T15:39:29.048Z,73.50
2024-01-14T15:43:32.846Z,73.70
2024-01-14T15:47:37.595Z,73.80
2024-01-14T15:51:40.994Z,73.70
2024-01-14T15:55:44.476Z,73.60
2024-01-14T15:59:47.365Z,73.60
2024-01-14T16:03:50.721Z,73.60
2024-01-14T16:07:53.627Z,73.60
2024-01-14T16:11:56.516Z,73.70
2024-01-14T16:15:59.543Z,73.70
2024-01-14T16:20:02.536Z,73.70
2024-01-14T16:24:08.590Z,73.60
2024-01-14T16:28:11.712Z,73.70
2024-01-14T16:32:17.099Z,73.60
2024-01-14T16:36:20.767Z,73.80
2024-01-14T16:40:24.100Z,73.90
2024-01-14T16:44:27.061Z,74.00
2024-01-14T16:48:34.277Z,74.00
2024-01-14T16:52:37.687Z,73.90
2024-01-14T16:56:40.696Z,73.90
2024-01-14T17:00:51.396Z,74.10
2024-01-14T17:05:04.933Z,74.10
2024-01-14T17:09:10.571Z,74.00
2024-01-14T17:13:13.596Z,74.00
2024-01-14T17:17:18.327Z,74.10
2024-01-14T17:21:22.359Z,74.10
2024-01-14T17:25:28.455Z,74.00
2024-01-14T17:29:31.580Z,74.10
2024-01-14T17:33:35.216Z,74.10
2024-01-14T17:37:38.117Z,74.10
2024-01-14T17:41:41.072Z,74.00
2024-01-14T17:45:55.160Z,74.20
2024-01-14T17:50:07.193Z,74.40
2024-01-14T17:54:10.473Z,74.30
2024-01-14T17:58:13.673Z,74.20
2024-01-14T18:02:19.556Z,74.20
2024-01-14T18:06:24.351Z,74.20
2024-01-14T18:10:28.800Z,74.40
2024-01-14T18:14:31.991Z,74.60
2024-01-14T18:18:40.272Z,74.60
2024-01-14T18:22:48.669Z,74.50
2024-01-14T18:26:57.132Z,74.50
2024-01-14T18:31:00.776Z,74.50
2024-01-14T18:35:03.941Z,74.50
2024-01-14T18:39:07.597Z,74.60
2024-01-14T18:43:12.700Z,74.60
2024-01-14T18:47:18.426Z,74.70
2024-01-14T18:51:21.834Z,74.60
2024-01-14T18:55:25.081Z,74.60
2024-01-14T18:59:28.210Z,74.70
2024-01-14T19:03:31.737Z,74.70
2024-01-14T19:07:35.545Z,74.80
2024-01-14T19:11:42.507Z,74.80
2024-01-14T19:15:45.857Z,74.90
2024-01-14T19:19:49.228Z,75.00
2024-01-14T19:23:55.410Z,74.90
2024-01-14T19:27:58.432Z,74.90
2024-01-14T19:32:01.452Z,75.00
2024-01-14T19:36:07.107Z,74.90
2024-01-14T19:40:11.230Z,74.90
2024-01-14T19:44:18.831Z,74.90
2024-01-14T19:48:25.522Z,75.00
2024-01-14T19:52:28.379Z,75.10
2024-01-14T19:56:35.673Z,74.90
2024-01-14T20:00:40.558Z,75.10
2024-01-14T20:04:49.105Z,75.10
2024-01-14T20:08:54.665Z,75.10
2024-01-14T20:13:04.125Z,75.10
2024-01-14T20:17:10.672Z,75.20
2024-01-14T20:21:14.142Z,75.30
2024-01-14T20:25:18.921Z,75.20
2024-01-14T20:29:31.246Z,75.30
2024-01-14T20:33:36.233Z,75.30
2024-01-14T20:37:39.489Z,75.30
2024-01-14T20:41:47.361Z,75.30
2024-01-14T20:45:53.720Z,75.40
2024-01-14T20:50:00.202Z,75.50
2024-01-14T20:54:03.970Z,75.50
2024-01-14T20:58:08.662Z,75.40
2024-01-14T21:02:15.609Z,75.40
2024-01-14T21:06:24.415Z,75.40
2024-01-14T21:10:27.685Z,75.50
2024-01-14T21:14:32.384Z,75.50
2024-01-14T21:18:39.243Z,75.50
2024-01-14T21:22:45.501Z,75.50
2024-01-14T21:26:49.259Z,75.70
2024-01-14T21:30:52.465Z,75.60
2024-01-14T21:34:55.710Z,75.70
2024-01-14T21:38:58.754Z,75.60
2024-01-14T21:43:01.852Z,75.60
2024-01-14T21:47:05.060Z,75.70
2024-01-14T21:51:08.111Z,75.70
2024-01-14T21:55:13.936Z,75.70
2024-01-14T21:59:18.107Z,75.70
2024-01-14T22:03:22.711Z,75.70
2024-01-14T22:07:25.743Z,75.70
2024-01-14T22:11:28.726Z,75.80
2024-01-14T22:15:31.777Z,75.80
2024-01-14T22:19:35.690Z,75.70
2024-01-14T22:23:39.479Z,75.80
2024-01-14T22:27:42.557Z,75.80
2024-01-14T22:31:45.426Z,76.00
2024-01-14T22:35:48.525Z,76.10
2024-01-14T22:39:51.325Z,76.10
2024-01-14T22:43:54.464Z,76.20
2024-01-14T22:47:57.606Z,76.10
2024-01-14T22:52:01.018Z,76.10
2024-01-14T22:56:05.325Z,76.00
2024-01-14T23:00:09.211Z,76.00
2024-01-14T23:04:12.953Z,76.00
2024-01-14T23:08:15.856Z,76.20
2024-01-14T23:12:18.867Z,76.20
2024-01-14T23:16:22.532Z,76.20
2024-01-14T23:20:25.371Z,76.30
2024-01-14T23:24:28.274Z,76.20
2024-01-14T23:28:31.096Z,76.20
2024-01-14T23:32:34.006Z,76.20
2024-01-14T23:36:36.819Z,76.30
2024-01-14T23:40:39.624Z,76.40
2024-01-14T23:44:42.599Z,76.50
2024-01-14T23:48:45.546Z,76.40
2024-01-14T23:52:48.608Z,76.50
2024-01-14T23:56:51.380Z,76.40
